createdAt,value
2019-04-11T00:03:45.952Z,14.68
2019-04-11T00:08:52.314Z,13.72
2019-04-11T00:13:57.844Z,16.30
2019-04-11T00:19:05.214Z,14.40
2019-04-11T00:24:10.524Z,13.97
2019-04-11T00:29:16.390Z,13.68
2019-04-11T00:34:22.799Z,12.80
2019-04-11T00:39:28.396Z,12.90
2019-04-11T00:44:34.753Z,13.20
2019-04-11T00:49:41.102Z,13.20
2019-04-11T00:54:46.981Z,12.77
2019-04-11T00:59:52.442Z,12.73
2019-04-11T01:04:57.723Z,12.73
2019-04-11T01:10:02.991Z,13.00
2019-04-11T01:15:11.235Z,12.30
2019-04-11T01:20:17.405Z,13.50
2019-04-11T01:25:24.116Z,12.50
2019-04-11T01:30:45.066Z,13.07
2019-04-11T01:35:49.997Z,13.27
2019-04-11T01:40:56.163Z,13.35
2019-04-11T01:46:02.207Z,13.18
2019-04-11T01:51:07.978Z,12.65
2019-04-11T01:56:13.370Z,11.97
2019-04-11T02:01:28.537Z,12.28
2019-04-11T02:06:34.161Z,11.97
2019-04-11T02:11:39.905Z,13.28
2019-04-11T02:16:45.442Z,11.80
2019-04-11T02:21:52.410Z,11.35
2019-04-11T02:27:06.492Z,12.47
2019-04-11T02:32:12.691Z,10.55
2019-04-11T02:37:19.749Z,10.70
2019-04-11T02:42:25.607Z,10.77
2019-04-11T02:47:35.002Z,11.97
2019-04-11T02:52:40.149Z,10.43
2019-04-11T02:57:48.308Z,10.32
2019-04-11T03:02:54.301Z,9.88
2019-04-11T03:08:00.762Z,10.85
2019-04-11T03:13:08.414Z,11.20
2019-04-11T03:18:33.152Z,11.80
2019-04-11T03:23:23.035Z,10.53
2019-04-11T03:28:31.275Z,11.97
2019-04-11T03:34:27.650Z,10.78
2019-04-11T03:39:07.712Z,10.88
2019-04-11T03:44:01.768Z,11.18
2019-04-11T03:49:06.213Z,11.28
2019-04-11T03:54:07.444Z,10.93
2019-04-11T03:59:16.322Z,11.78
2019-04-11T04:04:21.825Z,10.50
2019-04-11T04:09:29.107Z,11.90
2019-04-11T04:14:56.507Z,14.58
2019-04-11T04:20:39.531Z,12.13
2019-04-11T04:25:47.305Z,14.13
2019-04-11T04:30:53.788Z,13.17
2019-04-11T04:36:00.172Z,14.73
2019-04-11T04:41:21.067Z,13.32
2019-04-11T04:46:30.078Z,13.28
2019-04-11T04:51:24.283Z,13.53
2019-04-11T04:56:32.198Z,12.63
2019-04-11T05:01:37.304Z,13.25
2019-04-11T05:06:46.713Z,12.88
2019-04-11T05:11:51.108Z,13.17
2019-04-11T05:16:58.161Z,17.30
2019-04-11T05:22:03.530Z,14.45
2019-04-11T05:27:08.805Z,14.83
2019-04-11T05:32:15.484Z,17.90
2019-04-11T05:37:20.856Z,26.15
2019-04-11T05:42:27.098Z,21.70
2019-04-11T05:47:32.919Z,16.73
2019-04-11T05:52:38.254Z,15.53
2019-04-11T05:57:46.757Z,13.65
2019-04-11T06:02:59.674Z,10.48
2019-04-11T06:08:07.841Z,15.10
2019-04-11T06:13:16.422Z,13.48
2019-04-11T06:18:43.814Z,11.50
2019-04-11T06:24:04.529Z,11.40
2019-04-11T06:29:21.290Z,11.40
2019-04-11T06:34:24.052Z,14.05
2019-04-11T06:39:48.908Z,14.65
2019-04-11T06:45:13.426Z,10.95
2019-04-11T06:50:41.657Z,11.53
2019-04-11T06:55:57.385Z,10.17
2019-04-11T07:01:11.891Z,14.93
2019-04-11T07:06:20.053Z,12.20
2019-04-11T07:11:32.164Z,10.20
2019-04-11T07:17:04.076Z,11.35
2019-04-11T07:22:23.136Z,10.58
2019-04-11T07:27:30.445Z,12.28
2019-04-11T07:32:36.488Z,11.83
2019-04-11T07:37:47.381Z,9.80
2019-04-11T07:43:22.567Z,9.33
2019-04-11T07:48:40.322Z,11.05
2019-04-11T07:53:48.419Z,8.20
2019-04-11T07:58:57.049Z,7.27
2019-04-11T08:04:27.673Z,7.60
2019-04-11T08:09:41.592Z,8.63
2019-04-11T08:15:05.496Z,8.08
2019-04-11T08:20:42.316Z,8.73
2019-04-11T08:26:22.196Z,8.78
2019-04-11T08:31:47.059Z,11.48
2019-04-11T08:37:11.544Z,12.25
2019-04-11T08:42:47.245Z,10.60
2019-04-11T08:47:57.278Z,8.90
2019-04-11T08:53:18.478Z,8.10
2019-04-11T08:58:33.097Z,7.30
2019-04-11T09:04:10.460Z,7.60
2019-04-11T09:09:37.678Z,7.50
2019-04-11T09:15:02.451Z,8.20
2019-04-11T09:20:36.233Z,7.10
2019-04-11T09:26:20.219Z,8.60
2019-04-11T09:37:17.019Z,10.63
2019-04-11T09:42:45.254Z,6.90
2019-04-11T09:48:25.171Z,8.33
2019-04-11T09:53:32.472Z,7.25
2019-04-11T09:58:39.910Z,7.25
2019-04-11T10:03:45.897Z,6.90
2019-04-11T10:08:57.667Z,9.37
2019-04-11T10:14:09.319Z,7.23
2019-04-11T10:19:24.476Z,7.70
2019-04-11T10:24:57.486Z,7.63
2019-04-11T10:30:24.058Z,7.90
2019-04-11T10:35:42.865Z,9.07
2019-04-11T10:41:09.393Z,7.58
2019-04-11T10:46:27.145Z,7.33
2019-04-11T10:51:46.011Z,7.78
2019-04-11T10:57:09.041Z,7.90
2019-04-11T11:02:33.650Z,7.40
2019-04-11T11:07:40.356Z,7.63
2019-04-11T11:13:11.879Z,8.03
2019-04-11T11:19:07.523Z,7.80
2019-04-11T11:23:49.338Z,7.70
2019-04-11T11:29:31.958Z,7.08
2019-04-11T11:35:08.235Z,7.67
2019-04-11T11:40:38.449Z,6.83
2019-04-11T11:46:10.068Z,6.73
2019-04-11T11:51:26.613Z,7.55
2019-04-11T11:56:30.135Z,7.37
2019-04-11T12:01:38.917Z,8.60
2019-04-11T12:06:48.205Z,7.12
2019-04-11T12:11:57.477Z,7.12
2019-04-11T12:17:24.906Z,7.12
2019-04-11T12:22:30.870Z,7.78
2019-04-11T12:27:56.244Z,7.37
2019-04-11T12:33:27.698Z,7.10
2019-04-11T12:38:45.712Z,7.47
2019-04-11T12:44:12.681Z,7.28
2019-04-11T12:49:26.401Z,8.70
2019-04-11T12:54:31.829Z,7.55
2019-04-11T12:59:37.137Z,7.57
2019-04-11T13:04:45.182Z,7.20
2019-04-11T13:10:12.482Z,7.10
2019-04-11T13:15:28.731Z,7.03
2019-04-11T13:20:46.225Z,7.42
2019-04-11T13:26:10.325Z,9.03
2019-04-11T13:31:33.417Z,7.78
2019-04-11T13:37:06.737Z,8.67
2019-04-11T13:42:40.000Z,7.25
2019-04-11T13:48:03.673Z,7.42
2019-04-11T13:53:48.977Z,7.40
2019-04-11T13:59:13.162Z,8.03
2019-04-11T14:04:23.437Z,7.67
2019-04-11T14:09:38.405Z,9.00
2019-04-11T14:14:56.000Z,7.67
2019-04-11T14:20:28.553Z,40.70
2019-04-11T14:25:42.684Z,7.22
2019-04-11T14:31:06.897Z,8.30
2019-04-11T14:36:49.873Z,7.60
2019-04-11T14:42:12.618Z,7.47
2019-04-11T14:47:43.258Z,6.90
2019-04-11T14:52:50.960Z,6.75
2019-04-11T14:58:06.104Z,6.87
2019-04-11T15:03:36.232Z,6.90
2019-04-11T15:08:59.232Z,6.70
2019-04-11T15:14:18.173Z,6.53
2019-04-11T15:19:24.034Z,6.95
2019-04-11T15:24:29.358Z,7.70
2019-04-11T15:29:37.374Z,6.90
2019-04-11T15:34:54.193Z,6.37
2019-04-11T15:40:04.827Z,6.67
2019-04-11T15:45:30.188Z,7.20
2019-04-11T15:50:53.576Z,6.90
2019-04-11T15:56:30.358Z,6.55
2019-04-11T16:02:01.150Z,6.83
2019-04-11T16:07:25.773Z,6.85
2019-04-11T16:12:40.099Z,10.80
2019-04-11T16:18:09.248Z,7.35
2019-04-11T16:23:17.780Z,6.83
2019-04-11T16:28:54.007Z,7.28
2019-04-11T16:34:17.898Z,7.28
2019-04-11T16:39:55.192Z,8.05
2019-04-11T16:45:25.080Z,8.25
2019-04-11T16:50:30.230Z,7.70
2019-04-11T16:55:36.871Z,7.47
2019-04-11T17:00:42.614Z,7.83
2019-04-11T17:05:58.357Z,7.03
2019-04-11T17:11:12.686Z,7.77
2019-04-11T17:16:19.799Z,9.38
2019-04-11T17:21:25.081Z,8.23
2019-04-11T17:26:30.720Z,8.23
2019-04-11T17:31:36.209Z,7.22
2019-04-11T17:36:41.828Z,7.60
2019-04-11T17:41:48.783Z,7.28
2019-04-11T17:46:56.391Z,8.40
2019-04-11T17:52:04.860Z,8.67
2019-04-11T17:57:09.743Z,7.20
2019-04-11T18:02:15.231Z,6.90
2019-04-11T18:07:20.625Z,13.38
2019-04-11T18:12:26.762Z,13.35
2019-04-11T18:17:32.706Z,19.30
2019-04-11T18:22:39.208Z,16.50
2019-04-11T18:27:44.505Z,13.87
2019-04-11T18:36:31.959Z,15.30
2019-04-11T18:41:37.377Z,16.67
2019-04-11T18:46:42.869Z,10.15
2019-04-11T18:51:48.290Z,7.42
2019-04-11T18:56:53.658Z,7.87
2019-04-11T19:01:59.124Z,9.83
2019-04-11T19:07:05.097Z,10.77
2019-04-11T19:12:10.807Z,7.78
2019-04-11T19:17:16.428Z,8.85
2019-04-11T19:22:36.786Z,8.60
2019-04-11T19:27:29.822Z,8.67
2019-04-11T19:32:35.120Z,8.33
2019-04-11T19:37:42.121Z,7.72
2019-04-11T19:42:49.189Z,7.00
2019-04-11T19:47:57.297Z,8.43
2019-04-11T19:53:03.497Z,6.40
2019-04-11T19:58:09.935Z,8.30
2019-04-11T20:03:15.202Z,7.20
2019-04-11T20:08:20.674Z,6.85
2019-04-11T20:13:25.955Z,6.55
2019-04-11T20:18:31.340Z,7.57
2019-04-11T20:23:36.664Z,6.97
2019-04-11T20:28:41.894Z,7.05
2019-04-11T20:33:47.667Z,6.23
2019-04-11T20:38:53.512Z,6.57
2019-04-11T20:44:02.824Z,6.22
2019-04-11T20:49:09.021Z,8.90
2019-04-11T20:54:14.344Z,6.12
2019-04-11T20:59:20.538Z,7.37
2019-04-11T21:04:26.201Z,5.92
2019-04-11T21:09:33.358Z,7.58
2019-04-11T21:14:39.050Z,6.03
2019-04-11T21:19:47.140Z,7.10
2019-04-11T21:24:52.385Z,5.93
2019-04-11T21:29:59.756Z,6.30
2019-04-11T21:35:05.274Z,5.93
2019-04-11T21:40:11.033Z,5.95
2019-04-11T21:45:16.739Z,6.37
2019-04-11T21:50:22.079Z,6.37
2019-04-11T21:55:27.926Z,5.40
2019-04-11T22:00:41.846Z,6.25
2019-04-11T22:05:49.548Z,6.05
2019-04-11T22:10:55.090Z,5.63
2019-04-11T22:16:00.751Z,7.37
2019-04-11T22:21:06.095Z,7.33
2019-04-11T22:26:11.558Z,6.97
2019-04-11T22:31:17.216Z,6.40
2019-04-11T22:36:22.963Z,5.97
2019-04-11T22:41:29.292Z,7.83
2019-04-11T22:46:37.368Z,5.93
2019-04-11T22:51:43.450Z,5.97
2019-04-11T22:56:49.017Z,5.83
2019-04-11T23:01:57.132Z,5.50
2019-04-11T23:07:02.700Z,5.80
2019-04-11T23:12:08.271Z,5.30
2019-04-11T23:17:14.167Z,5.87
2019-04-11T23:22:20.109Z,5.83
2019-04-11T23:27:26.413Z,5.87
2019-04-11T23:32:31.683Z,5.58
2019-04-11T23:37:51.054Z,5.53
2019-04-11T23:42:56.717Z,6.28
2019-04-11T23:48:02.043Z,5.58
2019-04-11T23:53:07.504Z,6.60
2019-04-11T23:58:13.139Z,5.27
